Acworth, Georgia
Current Conditions -  °F | °C
As of 11:47 AM on Wednesday 22 Oct 2014 (Local Time) from KRYY Reporting Station
Clear Clear  
Wind Chill: 15°   Ceiling: Unl
Heat Index: 15°   Visibility: 10mi
Dew Point:   Wind: 0mph
Humidity: 48%   Direction: NA
Pressure: 30.15"   Gusts: NA
Location:  34.06°N, 84.68°W
Report Text: KRYY 221547Z 00000KT 10SM SKC 15/04 A3015
Loading
Personal Weather Stations






























Interactive Weather Map
Tropical Storm Tracking
New forecast layout! Learn more

10-Day Weather Forecast

Advertisements
Track Severe Weather on mobile